sensor_id;sensor_type;location;lat;lon;timestamp;P1;durP1;ratioP1;P2;durP2;ratioP2
25667;SDS011;18003;-33.830;151.202;2023-07-02T00:01:56;3.05;;;2.80;;
25667;SDS011;18003;-33.830;151.202;2023-07-02T00:04:26;4.33;;;3.10;;
25667;SDS011;18003;-33.830;151.202;2023-07-02T00:06:56;5.87;;;3.08;;
25667;SDS011;18003;-33.830;151.202;2023-07-02T00:09:26;3.22;;;3.02;;
25667;SDS011;18003;-33.830;151.202;2023-07-02T00:11:56;3.72;;;3.42;;
25667;SDS011;18003;-33.830;151.202;2023-07-02T00:14:26;2.98;;;2.77;;
25667;SDS011;18003;-33.830;151.202;2023-07-02T00:16:56;3.22;;;3.02;;
25667;SDS011;18003;-33.830;151.202;2023-07-02T00:19:26;3.00;;;2.80;;
25667;SDS011;18003;-33.830;151.202;2023-07-02T00:21:56;3.33;;;2.92;;
25667;SDS011;18003;-33.830;151.202;2023-07-02T00:24:26;3.17;;;2.95;;
25667;SDS011;18003;-33.830;151.202;2023-07-02T00:26:56;3.02;;;2.83;;
25667;SDS011;18003;-33.830;151.202;2023-07-02T00:29:26;4.45;;;2.70;;
25667;SDS011;18003;-33.830;151.202;2023-07-02T00:31:56;2.92;;;2.72;;
25667;SDS011;18003;-33.830;151.202;2023-07-02T00:34:26;3.02;;;2.77;;
25667;SDS011;18003;-33.830;151.202;2023-07-02T00:36:56;2.80;;;2.60;;
25667;SDS011;18003;-33.830;151.202;2023-07-02T00:39:26;4.40;;;3.10;;
25667;SDS011;18003;-33.830;151.202;2023-07-02T00:42:05;3.60;;;3.30;;
25667;SDS011;18003;-33.830;151.202;2023-07-02T00:44:30;3.40;;;3.20;;
25667;SDS011;18003;-33.830;151.202;2023-07-02T00:47:02;4.00;;;3.20;;
25667;SDS011;18003;-33.830;151.202;2023-07-02T00:49:33;2.95;;;2.80;;
25667;SDS011;18003;-33.830;151.202;2023-07-02T00:52:03;2.67;;;2.50;;
25667;SDS011;18003;-33.830;151.202;2023-07-02T00:54:33;2.75;;;2.55;;
25667;SDS011;18003;-33.830;151.202;2023-07-02T00:57:04;2.93;;;2.40;;
25667;SDS011;18003;-33.830;151.202;2023-07-02T00:59:34;2.55;;;2.35;;
25667;SDS011;18003;-33.830;151.202;2023-07-02T01:02:04;2.62;;;2.42;;
25667;SDS011;18003;-33.830;151.202;2023-07-02T01:04:35;2.83;;;2.62;;
25667;SDS011;18003;-33.830;151.202;2023-07-02T01:07:05;2.87;;;2.58;;
25667;SDS011;18003;-33.830;151.202;2023-07-02T01:09:36;4.17;;;2.85;;
25667;SDS011;18003;-33.830;151.202;2023-07-02T01:12:07;2.98;;;2.77;;
25667;SDS011;18003;-33.830;151.202;2023-07-02T01:14:38;3.33;;;2.60;;
25667;SDS011;18003;-33.830;151.202;2023-07-02T01:17:10;3.47;;;3.17;;
25667;SDS011;18003;-33.830;151.202;2023-07-02T01:19:44;3.27;;;2.80;;
25667;SDS011;18003;-33.830;151.202;2023-07-02T01:22:21;3.95;;;2.50;;
25667;SDS011;18003;-33.830;151.202;2023-07-02T01:27:22;2.70;;;2.50;;
25667;SDS011;18003;-33.830;151.202;2023-07-02T01:29:52;3.37;;;2.55;;
25667;SDS011;18003;-33.830;151.202;2023-07-02T01:32:22;2.67;;;2.45;;
25667;SDS011;18003;-33.830;151.202;2023-07-02T01:34:52;2.65;;;2.45;;
25667;SDS011;18003;-33.830;151.202;2023-07-02T01:37:22;3.00;;;2.80;;
25667;SDS011;18003;-33.830;151.202;2023-07-02T01:39:52;2.87;;;2.67;;
25667;SDS011;18003;-33.830;151.202;2023-07-02T01:42:22;3.08;;;2.62;;
25667;SDS011;18003;-33.830;151.202;2023-07-02T01:44:52;2.60;;;2.40;;
25667;SDS011;18003;-33.830;151.202;2023-07-02T01:47:22;2.83;;;2.45;;
25667;SDS011;18003;-33.830;151.202;2023-07-02T01:49:52;2.72;;;2.30;;
25667;SDS011;18003;-33.830;151.202;2023-07-02T01:52:23;2.95;;;2.65;;
25667;SDS011;18003;-33.830;151.202;2023-07-02T01:54:53;2.50;;;2.40;;
25667;SDS011;18003;-33.830;151.202;2023-07-02T01:57:23;2.98;;;2.77;;
25667;SDS011;18003;-33.830;151.202;2023-07-02T01:59:54;2.72;;;2.52;;
25667;SDS011;18003;-33.830;151.202;2023-07-02T02:02:24;3.90;;;2.60;;
25667;SDS011;18003;-33.830;151.202;2023-07-02T02:04:54;3.12;;;2.80;;
25667;SDS011;18003;-33.830;151.202;2023-07-02T02:07:24;2.98;;;2.58;;
25667;SDS011;18003;-33.830;151.202;2023-07-02T02:09:54;2.60;;;2.40;;
25667;SDS011;18003;-33.830;151.202;2023-07-02T02:12:24;4.03;;;2.50;;
25667;SDS011;18003;-33.830;151.202;2023-07-02T02:14:55;2.70;;;2.50;;
25667;SDS011;18003;-33.830;151.202;2023-07-02T02:17:25;3.45;;;2.58;;
25667;SDS011;18003;-33.830;151.202;2023-07-02T02:19:55;5.05;;;2.60;;
25667;SDS011;18003;-33.830;151.202;2023-07-02T02:22:25;2.58;;;2.37;;
25667;SDS011;18003;-33.830;151.202;2023-07-02T02:24:58;4.33;;;2.70;;
25667;SDS011;18003;-33.830;151.202;2023-07-02T02:27:26;3.02;;;2.60;;
25667;SDS011;18003;-33.830;151.202;2023-07-02T02:29:56;3.37;;;2.40;;
25667;SDS011;18003;-33.830;151.202;2023-07-02T02:32:26;4.70;;;2.85;;
25667;SDS011;18003;-33.830;151.202;2023-07-02T02:34:59;18.10;;;3.47;;
25667;SDS011;18003;-33.830;151.202;2023-07-02T02:37:27;7.08;;;3.12;;
25667;SDS011;18003;-33.830;151.202;2023-07-02T02:39:58;4.37;;;2.80;;
25667;SDS011;18003;-33.830;151.202;2023-07-02T02:42:28;4.17;;;2.20;;
25667;SDS011;18003;-33.830;151.202;2023-07-02T02:44:58;6.58;;;3.00;;
25667;SDS011;18003;-33.830;151.202;2023-07-02T02:47:29;4.58;;;2.50;;
25667;SDS011;18003;-33.830;151.202;2023-07-02T02:49:59;3.62;;;2.40;;
25667;SDS011;18003;-33.830;151.202;2023-07-02T02:52:29;3.90;;;2.40;;
25667;SDS011;18003;-33.830;151.202;2023-07-02T02:55:00;6.50;;;2.87;;
25667;SDS011;18003;-33.830;151.202;2023-07-02T02:57:30;4.22;;;2.50;;
25667;SDS011;18003;-33.830;151.202;2023-07-02T03:00:00;5.70;;;2.72;;
25667;SDS011;18003;-33.830;151.202;2023-07-02T03:02:31;5.90;;;2.65;;
25667;SDS011;18003;-33.830;151.202;2023-07-02T03:05:02;5.40;;;2.70;;
25667;SDS011;18003;-33.830;151.202;2023-07-02T03:07:32;4.10;;;2.75;;
25667;SDS011;18003;-33.830;151.202;2023-07-02T03:10:02;5.20;;;3.00;;
25667;SDS011;18003;-33.830;151.202;2023-07-02T03:12:33;4.53;;;3.17;;
25667;SDS011;18003;-33.830;151.202;2023-07-02T03:15:05;4.65;;;2.95;;
25667;SDS011;18003;-33.830;151.202;2023-07-02T03:17:36;5.15;;;3.35;;
25667;SDS011;18003;-33.830;151.202;2023-07-02T03:20:07;4.60;;;2.60;;
25667;SDS011;18003;-33.830;151.202;2023-07-02T03:22:37;5.53;;;3.30;;
25667;SDS011;18003;-33.830;151.202;2023-07-02T03:25:07;4.55;;;3.00;;
25667;SDS011;18003;-33.830;151.202;2023-07-02T03:27:37;5.35;;;3.00;;
25667;SDS011;18003;-33.830;151.202;2023-07-02T03:30:08;7.37;;;3.10;;
25667;SDS011;18003;-33.830;151.202;2023-07-02T03:32:39;3.72;;;3.15;;
25667;SDS011;18003;-33.830;151.202;2023-07-02T03:35:09;6.85;;;3.00;;
25667;SDS011;18003;-33.830;151.202;2023-07-02T03:37:39;5.05;;;3.30;;
25667;SDS011;18003;-33.830;151.202;2023-07-02T03:40:10;4.75;;;2.80;;
25667;SDS011;18003;-33.830;151.202;2023-07-02T03:42:40;5.60;;;2.98;;
25667;SDS011;18003;-33.830;151.202;2023-07-02T03:45:11;5.93;;;2.60;;
25667;SDS011;18003;-33.830;151.202;2023-07-02T03:47:42;6.60;;;2.60;;
25667;SDS011;18003;-33.830;151.202;2023-07-02T03:50:13;8.48;;;3.15;;
25667;SDS011;18003;-33.830;151.202;2023-07-02T03:52:44;5.25;;;2.83;;
25667;SDS011;18003;-33.830;151.202;2023-07-02T03:55:14;6.72;;;2.80;;
25667;SDS011;18003;-33.830;151.202;2023-07-02T03:57:45;3.62;;;2.55;;
25667;SDS011;18003;-33.830;151.202;2023-07-02T04:00:16;5.33;;;2.58;;
25667;SDS011;18003;-33.830;151.202;2023-07-02T04:02:46;3.83;;;2.62;;
25667;SDS011;18003;-33.830;151.202;2023-07-02T04:05:16;2.87;;;2.30;;
25667;SDS011;18003;-33.830;151.202;2023-07-02T04:07:46;5.58;;;2.37;;
25667;SDS011;18003;-33.830;151.202;2023-07-02T04:10:16;4.80;;;2.50;;
25667;SDS011;18003;-33.830;151.202;2023-07-02T04:12:49;9.10;;;2.92;;
25667;SDS011;18003;-33.830;151.202;2023-07-02T04:15:19;5.08;;;2.62;;
25667;SDS011;18003;-33.830;151.202;2023-07-02T04:17:56;69.72;;;9.30;;
25667;SDS011;18003;-33.830;151.202;2023-07-02T04:20:24;155.37;;;17.67;;
25667;SDS011;18003;-33.830;151.202;2023-07-02T04:22:55;108.80;;;14.03;;
25667;SDS011;18003;-33.830;151.202;2023-07-02T04:25:25;62.05;;;9.35;;
25667;SDS011;18003;-33.830;151.202;2023-07-02T04:27:56;45.60;;;8.00;;
25667;SDS011;18003;-33.830;151.202;2023-07-02T04:30:26;42.53;;;7.05;;
25667;SDS011;18003;-33.830;151.202;2023-07-02T04:32:59;29.18;;;5.47;;
25667;SDS011;18003;-33.830;151.202;2023-07-02T04:35:31;20.95;;;4.20;;
25667;SDS011;18003;-33.830;151.202;2023-07-02T04:38:01;17.52;;;4.58;;
25667;SDS011;18003;-33.830;151.202;2023-07-02T04:40:32;18.07;;;4.17;;
25667;SDS011;18003;-33.830;151.202;2023-07-02T04:43:02;15.28;;;4.00;;
25667;SDS011;18003;-33.830;151.202;2023-07-02T04:45:32;8.68;;;3.22;;
25667;SDS011;18003;-33.830;151.202;2023-07-02T04:48:03;10.32;;;3.25;;
25667;SDS011;18003;-33.830;151.202;2023-07-02T04:50:34;5.75;;;2.70;;
25667;SDS011;18003;-33.830;151.202;2023-07-02T04:53:05;5.15;;;2.40;;
25667;SDS011;18003;-33.830;151.202;2023-07-02T04:55:36;5.85;;;2.50;;
25667;SDS011;18003;-33.830;151.202;2023-07-02T04:58:06;5.55;;;3.62;;
25667;SDS011;18003;-33.830;151.202;2023-07-02T05:00:37;4.72;;;3.65;;
25667;SDS011;18003;-33.830;151.202;2023-07-02T05:03:07;4.80;;;3.60;;
25667;SDS011;18003;-33.830;151.202;2023-07-02T05:05:37;7.65;;;3.72;;
25667;SDS011;18003;-33.830;151.202;2023-07-02T05:08:07;4.10;;;3.12;;
25667;SDS011;18003;-33.830;151.202;2023-07-02T05:10:38;4.72;;;2.83;;
25667;SDS011;18003;-33.830;151.202;2023-07-02T05:13:08;4.83;;;3.00;;
25667;SDS011;18003;-33.830;151.202;2023-07-02T05:15:38;5.30;;;3.30;;
25667;SDS011;18003;-33.830;151.202;2023-07-02T05:18:09;5.37;;;3.30;;
25667;SDS011;18003;-33.830;151.202;2023-07-02T05:20:39;6.30;;;3.00;;
25667;SDS011;18003;-33.830;151.202;2023-07-02T05:23:09;4.97;;;3.35;;
25667;SDS011;18003;-33.830;151.202;2023-07-02T05:25:39;4.17;;;2.87;;
25667;SDS011;18003;-33.830;151.202;2023-07-02T05:28:11;4.95;;;3.08;;
25667;SDS011;18003;-33.830;151.202;2023-07-02T05:30:40;4.70;;;3.23;;
25667;SDS011;18003;-33.830;151.202;2023-07-02T05:33:10;5.08;;;3.10;;
25667;SDS011;18003;-33.830;151.202;2023-07-02T05:35:40;6.83;;;3.60;;
25667;SDS011;18003;-33.830;151.202;2023-07-02T05:38:11;5.87;;;3.85;;
25667;SDS011;18003;-33.830;151.202;2023-07-02T05:40:42;6.05;;;3.12;;
25667;SDS011;18003;-33.830;151.202;2023-07-02T05:43:12;5.28;;;3.60;;
25667;SDS011;18003;-33.830;151.202;2023-07-02T05:45:42;4.28;;;3.50;;
25667;SDS011;18003;-33.830;151.202;2023-07-02T05:48:12;3.40;;;3.12;;
25667;SDS011;18003;-33.830;151.202;2023-07-02T05:50:42;6.00;;;3.58;;
25667;SDS011;18003;-33.830;151.202;2023-07-02T05:53:12;6.05;;;3.22;;
25667;SDS011;18003;-33.830;151.202;2023-07-02T05:55:43;4.42;;;3.30;;
25667;SDS011;18003;-33.830;151.202;2023-07-02T05:58:13;8.30;;;4.40;;
25667;SDS011;18003;-33.830;151.202;2023-07-02T06:00:43;8.38;;;4.40;;
25667;SDS011;18003;-33.830;151.202;2023-07-02T06:03:15;5.75;;;4.20;;
25667;SDS011;18003;-33.830;151.202;2023-07-02T06:05:49;6.45;;;4.25;;
25667;SDS011;18003;-33.830;151.202;2023-07-02T06:08:19;20.10;;;7.08;;
25667;SDS011;18003;-33.830;151.202;2023-07-02T06:10:49;15.80;;;5.42;;
25667;SDS011;18003;-33.830;151.202;2023-07-02T06:13:19;14.25;;;6.17;;
25667;SDS011;18003;-33.830;151.202;2023-07-02T06:15:49;9.98;;;5.40;;
25667;SDS011;18003;-33.830;151.202;2023-07-02T06:18:19;9.28;;;4.90;;
25667;SDS011;18003;-33.830;151.202;2023-07-02T06:20:50;6.22;;;4.65;;
25667;SDS011;18003;-33.830;151.202;2023-07-02T06:23:20;8.68;;;4.10;;
25667;SDS011;18003;-33.830;151.202;2023-07-02T06:25:50;6.97;;;4.30;;
25667;SDS011;18003;-33.830;151.202;2023-07-02T06:28:21;6.83;;;4.10;;
25667;SDS011;18003;-33.830;151.202;2023-07-02T06:30:51;5.10;;;4.08;;
25667;SDS011;18003;-33.830;151.202;2023-07-02T06:33:21;6.55;;;4.80;;
25667;SDS011;18003;-33.830;151.202;2023-07-02T06:35:51;4.87;;;4.05;;
25667;SDS011;18003;-33.830;151.202;2023-07-02T06:38:21;5.70;;;4.08;;
25667;SDS011;18003;-33.830;151.202;2023-07-02T06:40:51;5.87;;;4.10;;
25667;SDS011;18003;-33.830;151.202;2023-07-02T06:43:21;6.65;;;3.95;;
25667;SDS011;18003;-33.830;151.202;2023-07-02T06:45:51;5.10;;;3.50;;
25667;SDS011;18003;-33.830;151.202;2023-07-02T06:48:21;4.10;;;3.02;;
25667;SDS011;18003;-33.830;151.202;2023-07-02T06:50:51;5.55;;;2.90;;
25667;SDS011;18003;-33.830;151.202;2023-07-02T06:53:21;4.47;;;3.70;;
25667;SDS011;18003;-33.830;151.202;2023-07-02T06:55:51;10.40;;;4.03;;
25667;SDS011;18003;-33.830;151.202;2023-07-02T06:58:21;5.87;;;3.83;;
25667;SDS011;18003;-33.830;151.202;2023-07-02T07:00:52;4.62;;;4.08;;
25667;SDS011;18003;-33.830;151.202;2023-07-02T07:03:22;6.55;;;4.37;;
25667;SDS011;18003;-33.830;151.202;2023-07-02T07:05:53;6.53;;;3.75;;
25667;SDS011;18003;-33.830;151.202;2023-07-02T07:08:23;5.15;;;3.67;;
25667;SDS011;18003;-33.830;151.202;2023-07-02T07:10:53;5.15;;;3.72;;
25667;SDS011;18003;-33.830;151.202;2023-07-02T07:13:23;4.25;;;3.85;;
25667;SDS011;18003;-33.830;151.202;2023-07-02T07:15:53;6.25;;;4.05;;
25667;SDS011;18003;-33.830;151.202;2023-07-02T07:18:23;10.70;;;5.10;;
25667;SDS011;18003;-33.830;151.202;2023-07-02T07:20:54;8.00;;;4.40;;
25667;SDS011;18003;-33.830;151.202;2023-07-02T07:23:30;7.28;;;4.28;;
25667;SDS011;18003;-33.830;151.202;2023-07-02T07:25:56;6.75;;;4.17;;
25667;SDS011;18003;-33.830;151.202;2023-07-02T07:28:26;8.38;;;4.62;;
25667;SDS011;18003;-33.830;151.202;2023-07-02T07:30:56;5.90;;;4.22;;
25667;SDS011;18003;-33.830;151.202;2023-07-02T07:33:26;4.95;;;4.45;;
25667;SDS011;18003;-33.830;151.202;2023-07-02T07:35:56;4.83;;;4.10;;
25667;SDS011;18003;-33.830;151.202;2023-07-02T07:38:26;6.12;;;4.60;;
25667;SDS011;18003;-33.830;151.202;2023-07-02T07:40:56;6.75;;;4.25;;
25667;SDS011;18003;-33.830;151.202;2023-07-02T07:43:26;6.30;;;4.40;;
25667;SDS011;18003;-33.830;151.202;2023-07-02T07:45:56;8.73;;;5.35;;
25667;SDS011;18003;-33.830;151.202;2023-07-02T07:48:26;6.58;;;4.80;;
25667;SDS011;18003;-33.830;151.202;2023-07-02T07:50:56;7.67;;;5.20;;
25667;SDS011;18003;-33.830;151.202;2023-07-02T07:53:26;6.90;;;4.90;;
25667;SDS011;18003;-33.830;151.202;2023-07-02T07:55:56;7.65;;;5.60;;
25667;SDS011;18003;-33.830;151.202;2023-07-02T07:58:26;7.33;;;5.72;;
25667;SDS011;18003;-33.830;151.202;2023-07-02T08:00:57;8.33;;;5.72;;
25667;SDS011;18003;-33.830;151.202;2023-07-02T08:03:27;7.78;;;5.78;;
25667;SDS011;18003;-33.830;151.202;2023-07-02T08:05:57;6.92;;;5.25;;
25667;SDS011;18003;-33.830;151.202;2023-07-02T08:08:28;7.25;;;6.03;;
25667;SDS011;18003;-33.830;151.202;2023-07-02T08:10:58;7.17;;;5.85;;
25667;SDS011;18003;-33.830;151.202;2023-07-02T08:13:28;7.37;;;6.12;;
25667;SDS011;18003;-33.830;151.202;2023-07-02T08:15:58;7.65;;;6.17;;
25667;SDS011;18003;-33.830;151.202;2023-07-02T08:18:28;8.40;;;6.12;;
25667;SDS011;18003;-33.830;151.202;2023-07-02T08:20:58;8.30;;;6.58;;
25667;SDS011;18003;-33.830;151.202;2023-07-02T08:23:28;9.65;;;5.70;;
25667;SDS011;18003;-33.830;151.202;2023-07-02T08:25:58;7.53;;;5.62;;
25667;SDS011;18003;-33.830;151.202;2023-07-02T08:28:28;7.75;;;6.03;;
25667;SDS011;18003;-33.830;151.202;2023-07-02T08:30:58;7.95;;;5.72;;
25667;SDS011;18003;-33.830;151.202;2023-07-02T08:33:28;7.62;;;5.80;;
25667;SDS011;18003;-33.830;151.202;2023-07-02T08:36:01;8.23;;;5.50;;
25667;SDS011;18003;-33.830;151.202;2023-07-02T08:38:34;9.15;;;6.33;;
25667;SDS011;18003;-33.830;151.202;2023-07-02T08:41:05;10.95;;;7.33;;
25667;SDS011;18003;-33.830;151.202;2023-07-02T08:43:36;10.15;;;7.37;;
25667;SDS011;18003;-33.830;151.202;2023-07-02T08:46:07;12.60;;;8.65;;
25667;SDS011;18003;-33.830;151.202;2023-07-02T08:48:38;11.57;;;8.97;;
25667;SDS011;18003;-33.830;151.202;2023-07-02T08:51:08;12.90;;;8.83;;
25667;SDS011;18003;-33.830;151.202;2023-07-02T08:53:38;10.85;;;9.25;;
25667;SDS011;18003;-33.830;151.202;2023-07-02T08:56:08;10.20;;;8.85;;
25667;SDS011;18003;-33.830;151.202;2023-07-02T08:58:45;13.10;;;9.63;;
25667;SDS011;18003;-33.830;151.202;2023-07-02T09:01:15;13.60;;;9.88;;
25667;SDS011;18003;-33.830;151.202;2023-07-02T09:03:45;12.68;;;9.25;;
25667;SDS011;18003;-33.830;151.202;2023-07-02T09:06:16;11.20;;;8.83;;
25667;SDS011;18003;-33.830;151.202;2023-07-02T09:08:46;13.83;;;9.35;;
25667;SDS011;18003;-33.830;151.202;2023-07-02T09:11:17;11.75;;;8.60;;
25667;SDS011;18003;-33.830;151.202;2023-07-02T09:13:48;10.48;;;8.60;;
25667;SDS011;18003;-33.830;151.202;2023-07-02T09:16:29;11.00;;;9.03;;
25667;SDS011;18003;-33.830;151.202;2023-07-02T09:19:07;10.20;;;7.70;;
25667;SDS011;18003;-33.830;151.202;2023-07-02T09:21:38;9.93;;;7.87;;
25667;SDS011;18003;-33.830;151.202;2023-07-02T09:24:18;10.93;;;7.90;;
25667;SDS011;18003;-33.830;151.202;2023-07-02T09:26:50;10.60;;;8.30;;
25667;SDS011;18003;-33.830;151.202;2023-07-02T09:29:31;10.53;;;8.53;;
25667;SDS011;18003;-33.830;151.202;2023-07-02T09:32:02;9.05;;;7.50;;
25667;SDS011;18003;-33.830;151.202;2023-07-02T09:34:37;9.15;;;7.67;;
25667;SDS011;18003;-33.830;151.202;2023-07-02T09:37:08;11.53;;;8.03;;
25667;SDS011;18003;-33.830;151.202;2023-07-02T09:39:41;12.15;;;8.48;;
25667;SDS011;18003;-33.830;151.202;2023-07-02T09:42:12;12.20;;;8.50;;
25667;SDS011;18003;-33.830;151.202;2023-07-02T09:44:43;15.72;;;9.90;;
25667;SDS011;18003;-33.830;151.202;2023-07-02T09:47:13;12.05;;;9.30;;
25667;SDS011;18003;-33.830;151.202;2023-07-02T09:52:23;13.32;;;10.15;;
25667;SDS011;18003;-33.830;151.202;2023-07-02T09:54:54;12.95;;;11.50;;
25667;SDS011;18003;-33.830;151.202;2023-07-02T09:57:24;12.88;;;10.38;;
25667;SDS011;18003;-33.830;151.202;2023-07-02T09:59:55;13.08;;;10.20;;
25667;SDS011;18003;-33.830;151.202;2023-07-02T10:02:26;15.53;;;10.83;;
25667;SDS011;18003;-33.830;151.202;2023-07-02T10:04:57;14.83;;;10.58;;
25667;SDS011;18003;-33.830;151.202;2023-07-02T10:07:27;13.53;;;10.70;;
25667;SDS011;18003;-33.830;151.202;2023-07-02T10:09:58;14.55;;;11.18;;
25667;SDS011;18003;-33.830;151.202;2023-07-02T10:12:29;14.78;;;11.12;;
25667;SDS011;18003;-33.830;151.202;2023-07-02T10:14:59;17.45;;;11.80;;
25667;SDS011;18003;-33.830;151.202;2023-07-02T10:17:30;16.70;;;12.25;;
25667;SDS011;18003;-33.830;151.202;2023-07-02T10:20:04;13.20;;;11.57;;
25667;SDS011;18003;-33.830;151.202;2023-07-02T10:22:44;15.50;;;13.10;;
25667;SDS011;18003;-33.830;151.202;2023-07-02T10:25:27;14.78;;;12.18;;
25667;SDS011;18003;-33.830;151.202;2023-07-02T10:28:19;16.02;;;13.10;;
25667;SDS011;18003;-33.830;151.202;2023-07-02T10:30:51;13.60;;;12.15;;
25667;SDS011;18003;-33.830;151.202;2023-07-02T10:33:22;16.35;;;12.58;;
25667;SDS011;18003;-33.830;151.202;2023-07-02T10:35:52;17.77;;;13.60;;
25667;SDS011;18003;-33.830;151.202;2023-07-02T10:38:24;14.90;;;12.85;;
25667;SDS011;18003;-33.830;151.202;2023-07-02T10:40:54;15.48;;;13.20;;
25667;SDS011;18003;-33.830;151.202;2023-07-02T10:43:30;14.23;;;12.25;;
25667;SDS011;18003;-33.830;151.202;2023-07-02T10:45:56;16.70;;;12.98;;
25667;SDS011;18003;-33.830;151.202;2023-07-02T10:48:30;17.35;;;11.88;;
25667;SDS011;18003;-33.830;151.202;2023-07-02T10:51:01;14.78;;;11.48;;
25667;SDS011;18003;-33.830;151.202;2023-07-02T10:56:00;13.30;;;11.03;;
25667;SDS011;18003;-33.830;151.202;2023-07-02T10:58:29;13.93;;;10.53;;
25667;SDS011;18003;-33.830;151.202;2023-07-02T11:00:59;14.47;;;10.43;;
25667;SDS011;18003;-33.830;151.202;2023-07-02T11:03:29;13.62;;;9.50;;
25667;SDS011;18003;-33.830;151.202;2023-07-02T11:05:59;13.70;;;9.93;;
25667;SDS011;18003;-33.830;151.202;2023-07-02T11:08:35;12.75;;;9.50;;
25667;SDS011;18003;-33.830;151.202;2023-07-02T11:11:08;11.33;;;9.48;;
25667;SDS011;18003;-33.830;151.202;2023-07-02T11:13:45;14.25;;;9.75;;
25667;SDS011;18003;-33.830;151.202;2023-07-02T11:16:24;13.45;;;9.70;;
25667;SDS011;18003;-33.830;151.202;2023-07-02T11:19:08;13.32;;;9.90;;
25667;SDS011;18003;-33.830;151.202;2023-07-02T11:21:37;12.28;;;10.00;;
25667;SDS011;18003;-33.830;151.202;2023-07-02T11:24:08;12.43;;;9.90;;
25667;SDS011;18003;-33.830;151.202;2023-07-02T11:26:42;13.43;;;10.23;;
25667;SDS011;18003;-33.830;151.202;2023-07-02T11:29:12;14.45;;;9.85;;
25667;SDS011;18003;-33.830;151.202;2023-07-02T11:31:45;11.38;;;9.70;;
25667;SDS011;18003;-33.830;151.202;2023-07-02T11:34:17;13.62;;;9.13;;
25667;SDS011;18003;-33.830;151.202;2023-07-02T11:36:47;12.63;;;9.03;;
25667;SDS011;18003;-33.830;151.202;2023-07-02T11:39:19;11.18;;;8.80;;
25667;SDS011;18003;-33.830;151.202;2023-07-02T11:41:49;11.55;;;8.68;;
25667;SDS011;18003;-33.830;151.202;2023-07-02T11:44:18;12.53;;;8.95;;
25667;SDS011;18003;-33.830;151.202;2023-07-02T11:46:48;10.93;;;7.97;;
25667;SDS011;18003;-33.830;151.202;2023-07-02T11:49:18;13.45;;;8.53;;
25667;SDS011;18003;-33.830;151.202;2023-07-02T11:51:49;10.13;;;8.25;;
25667;SDS011;18003;-33.830;151.202;2023-07-02T11:54:19;9.53;;;8.00;;
25667;SDS011;18003;-33.830;151.202;2023-07-02T11:56:49;11.30;;;8.15;;
25667;SDS011;18003;-33.830;151.202;2023-07-02T11:59:19;10.80;;;7.70;;
25667;SDS011;18003;-33.830;151.202;2023-07-02T12:01:49;12.05;;;8.20;;
25667;SDS011;18003;-33.830;151.202;2023-07-02T12:04:19;10.13;;;7.70;;
25667;SDS011;18003;-33.830;151.202;2023-07-02T12:06:49;9.98;;;7.60;;
25667;SDS011;18003;-33.830;151.202;2023-07-02T12:09:19;9.70;;;7.60;;
25667;SDS011;18003;-33.830;151.202;2023-07-02T12:11:49;10.98;;;7.65;;
25667;SDS011;18003;-33.830;151.202;2023-07-02T12:14:19;11.57;;;8.35;;
25667;SDS011;18003;-33.830;151.202;2023-07-02T12:16:49;9.70;;;7.53;;
25667;SDS011;18003;-33.830;151.202;2023-07-02T12:19:19;10.40;;;7.70;;
25667;SDS011;18003;-33.830;151.202;2023-07-02T12:21:49;11.30;;;7.70;;
25667;SDS011;18003;-33.830;151.202;2023-07-02T12:24:19;9.48;;;7.72;;
25667;SDS011;18003;-33.830;151.202;2023-07-02T12:26:48;9.38;;;8.33;;
25667;SDS011;18003;-33.830;151.202;2023-07-02T12:29:18;8.83;;;7.78;;
25667;SDS011;18003;-33.830;151.202;2023-07-02T12:31:48;10.60;;;8.23;;
25667;SDS011;18003;-33.830;151.202;2023-07-02T12:34:18;12.43;;;8.10;;
25667;SDS011;18003;-33.830;151.202;2023-07-02T12:36:47;10.48;;;8.58;;
25667;SDS011;18003;-33.830;151.202;2023-07-02T12:39:17;10.85;;;7.67;;
25667;SDS011;18003;-33.830;151.202;2023-07-02T12:41:47;11.30;;;8.13;;
25667;SDS011;18003;-33.830;151.202;2023-07-02T12:44:17;10.08;;;7.55;;
25667;SDS011;18003;-33.830;151.202;2023-07-02T12:46:47;10.88;;;7.50;;
25667;SDS011;18003;-33.830;151.202;2023-07-02T12:49:17;10.03;;;7.62;;
25667;SDS011;18003;-33.830;151.202;2023-07-02T12:51:46;12.95;;;7.65;;
25667;SDS011;18003;-33.830;151.202;2023-07-02T12:54:16;12.40;;;7.92;;
25667;SDS011;18003;-33.830;151.202;2023-07-02T12:56:46;11.80;;;7.85;;
25667;SDS011;18003;-33.830;151.202;2023-07-02T12:59:16;9.93;;;7.80;;
25667;SDS011;18003;-33.830;151.202;2023-07-02T13:01:46;11.80;;;7.80;;
25667;SDS011;18003;-33.830;151.202;2023-07-02T13:04:15;9.88;;;8.33;;
25667;SDS011;18003;-33.830;151.202;2023-07-02T13:06:45;13.03;;;7.78;;
25667;SDS011;18003;-33.830;151.202;2023-07-02T13:09:16;9.55;;;7.45;;
25667;SDS011;18003;-33.830;151.202;2023-07-02T13:11:49;10.43;;;7.17;;
25667;SDS011;18003;-33.830;151.202;2023-07-02T13:14:19;9.95;;;7.67;;
25667;SDS011;18003;-33.830;151.202;2023-07-02T13:16:50;9.48;;;7.20;;
25667;SDS011;18003;-33.830;151.202;2023-07-02T13:19:20;11.30;;;7.80;;
25667;SDS011;18003;-33.830;151.202;2023-07-02T13:21:50;9.18;;;7.35;;
25667;SDS011;18003;-33.830;151.202;2023-07-02T13:24:20;9.95;;;7.45;;
25667;SDS011;18003;-33.830;151.202;2023-07-02T13:26:50;11.90;;;7.75;;
25667;SDS011;18003;-33.830;151.202;2023-07-02T13:29:20;8.43;;;7.35;;
25667;SDS011;18003;-33.830;151.202;2023-07-02T13:31:50;9.05;;;7.40;;
25667;SDS011;18003;-33.830;151.202;2023-07-02T13:34:20;9.50;;;7.90;;
25667;SDS011;18003;-33.830;151.202;2023-07-02T13:36:50;10.95;;;7.72;;
25667;SDS011;18003;-33.830;151.202;2023-07-02T13:39:21;9.40;;;8.15;;
25667;SDS011;18003;-33.830;151.202;2023-07-02T13:41:51;9.98;;;7.87;;
25667;SDS011;18003;-33.830;151.202;2023-07-02T13:44:22;10.58;;;8.10;;
25667;SDS011;18003;-33.830;151.202;2023-07-02T13:46:52;11.75;;;7.65;;
25667;SDS011;18003;-33.830;151.202;2023-07-02T13:49:22;10.03;;;7.53;;
25667;SDS011;18003;-33.830;151.202;2023-07-02T13:51:53;9.18;;;7.33;;
25667;SDS011;18003;-33.830;151.202;2023-07-02T13:54:23;10.40;;;8.10;;
25667;SDS011;18003;-33.830;151.202;2023-07-02T13:56:55;12.60;;;7.67;;
25667;SDS011;18003;-33.830;151.202;2023-07-02T13:59:28;11.43;;;7.95;;
25667;SDS011;18003;-33.830;151.202;2023-07-02T14:02:06;13.58;;;8.33;;
25667;SDS011;18003;-33.830;151.202;2023-07-02T14:04:36;11.18;;;7.45;;
25667;SDS011;18003;-33.830;151.202;2023-07-02T14:07:07;9.63;;;7.47;;
25667;SDS011;18003;-33.830;151.202;2023-07-02T14:09:37;11.18;;;7.60;;
25667;SDS011;18003;-33.830;151.202;2023-07-02T14:12:07;9.50;;;7.80;;
25667;SDS011;18003;-33.830;151.202;2023-07-02T14:14:38;10.50;;;6.83;;
25667;SDS011;18003;-33.830;151.202;2023-07-02T14:17:08;10.08;;;7.33;;
25667;SDS011;18003;-33.830;151.202;2023-07-02T14:19:39;9.88;;;7.10;;
25667;SDS011;18003;-33.830;151.202;2023-07-02T14:22:09;9.85;;;6.62;;
25667;SDS011;18003;-33.830;151.202;2023-07-02T14:24:40;9.98;;;7.00;;
25667;SDS011;18003;-33.830;151.202;2023-07-02T14:27:11;10.98;;;7.40;;
25667;SDS011;18003;-33.830;151.202;2023-07-02T14:29:41;10.53;;;7.33;;
25667;SDS011;18003;-33.830;151.202;2023-07-02T14:32:12;8.78;;;7.20;;